createdAt,value
2019-04-06T00:00:58.235Z,38.70
2019-04-06T00:04:06.916Z,40.00
2019-04-06T00:07:15.445Z,39.63
2019-04-06T00:10:34.278Z,39.67
2019-04-06T00:13:44.037Z,38.47
2019-04-06T00:16:52.529Z,39.50
2019-04-06T00:20:01.239Z,40.43
2019-04-06T00:23:09.956Z,38.17
2019-04-06T00:26:28.846Z,38.73
2019-04-06T00:29:48.205Z,37.63
2019-04-06T00:33:03.841Z,37.80
2019-04-06T00:36:13.042Z,38.40
2019-04-06T00:39:21.794Z,39.33
2019-04-06T00:42:30.321Z,37.67
2019-04-06T00:45:49.172Z,37.90
2019-04-06T00:48:57.775Z,37.40
2019-04-06T00:52:09.419Z,37.07
2019-04-06T00:55:18.050Z,36.73
2019-04-06T00:58:26.657Z,39.17
2019-04-06T01:01:45.409Z,38.57
2019-04-06T01:04:54.086Z,38.77
2019-04-06T01:08:02.687Z,38.67
2019-04-06T01:11:11.411Z,37.10
2019-04-06T01:14:20.020Z,38.17
2019-04-06T01:17:28.565Z,36.93
2019-04-06T01:20:37.262Z,37.60
2019-04-06T01:23:46.078Z,40.70
2019-04-06T01:26:54.606Z,37.17
2019-04-06T01:30:14.261Z,38.17
2019-04-06T01:33:22.876Z,38.13
2019-04-06T01:36:41.735Z,37.53
2019-04-06T01:39:50.433Z,38.80
2019-04-06T01:42:59.088Z,37.67
2019-04-06T01:46:07.731Z,37.13
2019-04-06T01:49:16.386Z,38.93
2019-04-06T01:52:25.182Z,38.77
2019-04-06T01:55:33.798Z,37.73
2019-04-06T01:58:42.404Z,38.47
2019-04-06T02:01:55.380Z,36.13
2019-04-06T02:05:04.616Z,36.27
2019-04-06T02:08:13.995Z,38.10
2019-04-06T02:11:24.003Z,38.37
2019-04-06T02:14:32.731Z,37.77
2019-04-06T02:17:51.536Z,37.17
2019-04-06T02:21:00.322Z,37.50
2019-04-06T02:24:09.128Z,36.77
2019-04-06T02:27:17.947Z,36.10
2019-04-06T02:30:33.378Z,36.10
2019-04-06T02:34:01.316Z,37.37
2019-04-06T02:37:22.922Z,37.80
2019-04-06T02:41:02.806Z,36.10
2019-04-06T02:44:11.451Z,37.87
2019-04-06T02:47:20.087Z,38.47
2019-04-06T02:50:28.809Z,35.43
2019-04-06T02:53:47.716Z,36.90
2019-04-06T02:56:56.349Z,37.10
2019-04-06T03:00:06.336Z,37.93
2019-04-06T03:03:15.149Z,37.43
2019-04-06T03:06:23.775Z,37.73
2019-04-06T03:09:33.208Z,38.40
2019-04-06T03:12:41.753Z,38.13
2019-04-06T03:15:50.435Z,35.67
2019-04-06T03:18:58.953Z,36.20
2019-04-06T03:22:07.590Z,37.27
2019-04-06T03:25:16.252Z,38.03
2019-04-06T03:28:24.550Z,36.20
2019-04-06T03:31:33.321Z,35.70
2019-04-06T03:34:52.653Z,36.63
2019-04-06T03:38:01.607Z,34.23
2019-04-06T03:41:20.833Z,34.10
2019-04-06T03:44:29.673Z,35.03
2019-04-06T03:47:38.600Z,33.20
2019-04-06T03:50:57.782Z,34.50
2019-04-06T03:54:06.441Z,35.33
2019-04-06T03:57:16.937Z,34.90
2019-04-06T04:00:25.424Z,35.33
2019-04-06T04:03:34.071Z,34.37
2019-04-06T04:06:42.671Z,35.60
2019-04-06T04:09:51.289Z,34.73
2019-04-06T04:13:00.197Z,34.67
2019-04-06T04:16:08.788Z,35.87
2019-04-06T04:19:17.420Z,35.73
2019-04-06T04:22:36.704Z,34.20
2019-04-06T04:25:45.229Z,34.00
2019-04-06T04:29:04.554Z,34.40
2019-04-06T04:32:13.466Z,34.60
2019-04-06T04:35:23.043Z,34.33
2019-04-06T04:38:31.803Z,35.37
2019-04-06T04:41:40.715Z,35.27
2019-04-06T04:44:49.472Z,37.93
2019-04-06T04:47:58.084Z,35.33
2019-04-06T04:51:06.700Z,35.13
2019-04-06T04:54:25.498Z,35.03
2019-04-06T04:57:40.076Z,37.87
2019-04-06T05:00:44.526Z,36.40
2019-04-06T05:03:53.314Z,37.20
2019-04-06T05:07:01.921Z,39.57
2019-04-06T05:10:10.571Z,38.60
2019-04-06T05:13:19.197Z,40.13
2019-04-06T05:16:27.931Z,40.20
2019-04-06T05:19:36.544Z,38.70
2019-04-06T05:22:45.187Z,39.13
2019-04-06T05:26:04.255Z,40.03
2019-04-06T05:29:12.911Z,39.33
2019-04-06T05:32:21.555Z,40.13
2019-04-06T05:35:30.193Z,41.60
2019-04-06T05:38:38.829Z,42.70
2019-04-06T05:41:47.487Z,42.40
2019-04-06T05:44:56.113Z,40.47
2019-04-06T05:48:04.754Z,44.10
2019-04-06T05:51:13.376Z,44.33
2019-04-06T05:54:32.243Z,42.07
2019-04-06T05:57:40.879Z,44.50
2019-04-06T06:00:49.412Z,45.60
2019-04-06T06:03:58.038Z,46.43
2019-04-06T06:07:06.991Z,48.83
2019-04-06T06:10:15.667Z,49.10
2019-04-06T06:13:24.318Z,53.97
2019-04-06T06:16:32.877Z,50.13
2019-04-06T06:19:41.510Z,49.83
2019-04-06T06:23:00.402Z,54.33
2019-04-06T06:26:08.937Z,52.10
2019-04-06T06:29:17.714Z,51.57
2019-04-06T06:32:26.701Z,54.87
2019-04-06T06:35:35.003Z,53.97
2019-04-06T06:38:43.525Z,54.33
2019-04-06T06:41:52.204Z,53.23
2019-04-06T06:45:00.849Z,54.77
2019-04-06T06:48:09.839Z,54.57
2019-04-06T06:51:18.713Z,53.10
2019-04-06T06:54:27.509Z,55.03
2019-04-06T06:57:36.210Z,56.83
2019-04-06T07:00:45.471Z,57.30
2019-04-06T07:03:54.130Z,56.17
2019-04-06T07:07:02.852Z,55.07
2019-04-06T07:10:12.275Z,54.03
2019-04-06T07:13:20.979Z,55.73
2019-04-06T07:16:32.907Z,54.20
2019-04-06T07:19:41.553Z,53.87
2019-04-06T07:22:50.285Z,54.10
2019-04-06T07:25:59.141Z,53.90
2019-04-06T07:29:07.999Z,53.30
2019-04-06T07:32:16.638Z,54.60
2019-04-06T07:35:25.311Z,53.23
2019-04-06T07:38:33.696Z,52.37
2019-04-06T07:41:52.703Z,49.53
2019-04-06T07:45:01.291Z,50.73
2019-04-06T07:48:10.012Z,51.93
2019-04-06T07:51:18.629Z,50.93
2019-04-06T07:54:27.284Z,49.43
2019-04-06T07:57:37.705Z,50.97
2019-04-06T08:00:46.629Z,49.57
2019-04-06T08:03:55.332Z,49.07
2019-04-06T08:07:04.007Z,47.40
2019-04-06T08:10:12.769Z,47.23
2019-04-06T08:13:21.572Z,45.27
2019-04-06T08:16:30.325Z,46.90
2019-04-06T08:19:38.965Z,44.80
2019-04-06T08:22:47.580Z,44.60
2019-04-06T08:26:06.742Z,44.80
2019-04-06T08:29:16.408Z,44.23
2019-04-06T08:32:24.967Z,45.80
2019-04-06T08:35:33.685Z,43.47
2019-04-06T08:38:52.627Z,44.00
2019-04-06T08:42:01.477Z,42.37
2019-04-06T08:45:10.340Z,43.53
2019-04-06T08:48:18.931Z,42.23
2019-04-06T08:51:27.619Z,42.77
2019-04-06T08:54:36.190Z,43.00
2019-04-06T08:57:44.777Z,41.40
2019-04-06T09:00:53.347Z,43.90
2019-04-06T09:04:01.880Z,43.27
2019-04-06T09:07:20.841Z,42.87
2019-04-06T09:10:29.541Z,41.40
2019-04-06T09:13:40.357Z,42.43
2019-04-06T09:16:48.451Z,41.13
2019-04-06T09:19:57.040Z,44.20
2019-04-06T09:23:05.665Z,42.93
2019-04-06T09:26:14.201Z,42.00
2019-04-06T09:29:33.005Z,42.43
2019-04-06T09:32:41.719Z,42.73
2019-04-06T09:35:50.295Z,43.43
2019-04-06T09:38:58.820Z,40.37
2019-04-06T09:42:07.517Z,40.97
2019-04-06T09:45:47.355Z,38.63
2019-04-06T09:49:23.796Z,37.50
2019-04-06T09:53:02.733Z,37.60
2019-04-06T09:56:19.256Z,38.13
2019-04-06T09:59:57.600Z,37.10
2019-04-06T10:03:22.574Z,38.40
2019-04-06T10:06:54.105Z,35.87
2019-04-06T10:10:20.532Z,36.23
2019-04-06T10:13:53.600Z,37.37
2019-04-06T10:17:17.796Z,35.37
2019-04-06T10:20:51.955Z,35.00
2019-04-06T10:24:18.493Z,37.40
2019-04-06T10:27:41.959Z,34.90
2019-04-06T10:31:08.505Z,35.43
2019-04-06T10:34:36.120Z,35.83
2019-04-06T10:38:03.643Z,33.90
2019-04-06T10:41:37.469Z,33.10
2019-04-06T10:45:04.081Z,32.20
2019-04-06T10:48:20.270Z,33.67
2019-04-06T10:51:46.093Z,29.90
2019-04-06T10:55:13.678Z,27.37
2019-04-06T10:58:39.185Z,31.40
2019-04-06T11:02:27.935Z,31.93
2019-04-06T11:05:53.220Z,27.37
2019-04-06T11:09:32.750Z,27.03
2019-04-06T11:13:33.537Z,27.27
2019-04-06T11:17:19.282Z,27.10
2019-04-06T11:20:44.949Z,25.97
2019-04-06T11:24:36.319Z,27.67
2019-04-06T11:28:04.335Z,26.37
2019-04-06T11:31:34.752Z,24.40
2019-04-06T11:35:03.097Z,22.77
2019-04-06T11:38:48.050Z,25.53
2019-04-06T11:42:27.593Z,26.13
2019-04-06T11:45:48.735Z,21.83
2019-04-06T11:49:04.859Z,22.60
2019-04-06T11:52:49.748Z,22.47
2019-04-06T11:56:05.294Z,20.27
2019-04-06T11:59:28.632Z,21.27
2019-04-06T12:02:59.997Z,20.40
2019-04-06T12:06:27.496Z,21.00
2019-04-06T12:10:19.658Z,20.70
2019-04-06T12:13:47.090Z,19.27
2019-04-06T12:17:14.870Z,20.67
2019-04-06T12:20:36.929Z,19.83
2019-04-06T12:24:12.988Z,22.57
2019-04-06T12:27:47.495Z,20.03
2019-04-06T12:31:07.342Z,20.53
2019-04-06T12:34:33.919Z,19.23
2019-04-06T12:38:02.782Z,21.37
2019-04-06T12:41:23.948Z,19.90
2019-04-06T12:44:50.055Z,18.77
2019-04-06T12:48:52.680Z,20.33
2019-04-06T12:52:19.521Z,20.80
2019-04-06T12:55:43.918Z,22.63
2019-04-06T12:59:25.723Z,23.43
2019-04-06T13:03:02.146Z,20.73
2019-04-06T13:06:39.297Z,20.17
2019-04-06T13:10:05.870Z,16.20
2019-04-06T13:13:20.295Z,18.67
2019-04-06T13:16:48.031Z,19.93
2019-04-06T13:20:11.690Z,20.03
2019-04-06T13:23:37.962Z,21.03
2019-04-06T13:27:12.155Z,18.90
2019-04-06T13:30:48.567Z,23.13
2019-04-06T13:34:15.151Z,17.87
2019-04-06T13:37:31.810Z,20.90
2019-04-06T13:41:02.257Z,19.10
2019-04-06T13:44:36.382Z,20.70
2019-04-06T13:48:03.879Z,19.10
2019-04-06T13:51:53.266Z,17.03
2019-04-06T13:55:25.530Z,16.43
2019-04-06T13:58:55.220Z,16.70
2019-04-06T14:02:20.507Z,17.17
2019-04-06T14:05:46.628Z,15.77
2019-04-06T14:09:02.031Z,16.70
2019-04-06T14:12:23.266Z,15.83
2019-04-06T14:15:45.987Z,15.40
2019-04-06T14:19:13.382Z,15.50
2019-04-06T14:22:42.436Z,15.27
2019-04-06T14:26:08.467Z,14.17
2019-04-06T14:29:38.482Z,14.03
2019-04-06T14:32:57.174Z,15.90
2019-04-06T14:36:23.144Z,16.17
2019-04-06T14:39:56.680Z,15.97
2019-04-06T14:43:39.751Z,14.63
2019-04-06T14:46:59.868Z,14.13
2019-04-06T14:50:30.672Z,12.83
2019-04-06T14:54:32.666Z,14.00
2019-04-06T14:58:07.118Z,13.43
2019-04-06T15:01:45.415Z,14.53
2019-04-06T15:05:00.054Z,13.70
2019-04-06T15:08:27.519Z,12.60
2019-04-06T15:11:45.835Z,11.30
2019-04-06T15:15:21.234Z,11.80
2019-04-06T15:18:52.413Z,11.20
2019-04-06T15:22:18.303Z,11.87
2019-04-06T15:25:35.699Z,13.53
2019-04-06T15:29:36.934Z,14.97
2019-04-06T15:33:21.473Z,18.90
2019-04-06T15:36:48.649Z,19.43
2019-04-06T15:40:21.607Z,20.67
2019-04-06T15:43:54.887Z,19.33
2019-04-06T15:47:37.447Z,20.07
2019-04-06T15:51:17.020Z,21.63
2019-04-06T15:54:34.745Z,23.10
2019-04-06T15:57:50.130Z,20.43
2019-04-06T16:01:20.505Z,19.77
2019-04-06T16:04:58.933Z,22.63
2019-04-06T16:08:13.591Z,21.83
2019-04-06T16:12:00.520Z,21.47
2019-04-06T16:15:26.167Z,21.50
2019-04-06T16:19:26.542Z,22.63
2019-04-06T16:22:56.962Z,23.70
2019-04-06T16:26:29.085Z,21.90
2019-04-06T16:30:11.323Z,23.47
2019-04-06T16:34:03.431Z,21.43
2019-04-06T16:37:52.637Z,22.80
2019-04-06T16:41:44.614Z,23.20
2019-04-06T16:44:58.701Z,20.97
2019-04-06T16:48:29.162Z,21.60
2019-04-06T16:51:54.916Z,22.90
2019-04-06T16:55:25.847Z,21.10
2019-04-06T16:59:08.474Z,21.03
2019-04-06T17:02:50.834Z,22.23
2019-04-06T17:06:30.551Z,21.53
2019-04-06T17:10:02.216Z,22.70
2019-04-06T17:13:29.583Z,21.97
2019-04-06T17:17:21.254Z,22.53
2019-04-06T17:20:53.391Z,22.27
2019-04-06T17:24:10.344Z,23.10
2019-04-06T17:27:57.242Z,24.37
2019-04-06T17:31:30.830Z,24.50
2019-04-06T17:34:59.581Z,23.37
2019-04-06T17:38:18.067Z,22.83
2019-04-06T17:41:34.069Z,24.03
2019-04-06T17:45:09.101Z,22.87
2019-04-06T17:48:32.286Z,23.93
2019-04-06T17:52:11.845Z,25.57
2019-04-06T17:55:37.326Z,23.07
2019-04-06T17:58:58.396Z,24.27
2019-04-06T18:02:17.945Z,23.67
2019-04-06T18:05:45.863Z,24.83
2019-04-06T18:09:13.035Z,24.07
2019-04-06T18:12:32.423Z,23.80
2019-04-06T18:15:41.665Z,23.93
2019-04-06T18:18:50.314Z,22.43
2019-04-06T18:21:58.867Z,24.40
2019-04-06T18:25:07.608Z,23.53
2019-04-06T18:28:16.147Z,24.33
2019-04-06T18:32:02.994Z,24.50
2019-04-06T18:35:13.078Z,25.23
2019-04-06T18:38:31.920Z,25.17
2019-04-06T18:41:40.870Z,24.10
2019-04-06T18:44:49.861Z,25.00
2019-04-06T18:47:58.478Z,24.63
2019-04-06T18:51:07.022Z,24.80
2019-04-06T18:54:15.675Z,24.33
2019-04-06T18:57:24.233Z,23.73
2019-04-06T19:00:43.547Z,25.60
2019-04-06T19:04:02.449Z,25.60
2019-04-06T19:07:11.178Z,26.17
2019-04-06T19:10:20.309Z,25.80
2019-04-06T19:13:39.428Z,27.23
2019-04-06T19:16:48.214Z,27.07
2019-04-06T19:19:56.752Z,26.67
2019-04-06T19:23:05.294Z,26.40
2019-04-06T19:26:14.057Z,25.13
2019-04-06T19:29:22.699Z,25.03
2019-04-06T19:32:31.259Z,28.03
2019-04-06T19:35:40.505Z,27.57
2019-04-06T19:38:49.614Z,26.93
2019-04-06T19:41:58.373Z,27.87
2019-04-06T19:45:07.828Z,25.97
2019-04-06T19:48:26.847Z,26.03
2019-04-06T19:51:36.477Z,26.80
2019-04-06T19:54:46.059Z,27.00
2019-04-06T19:57:54.937Z,28.90
2019-04-06T20:01:03.512Z,27.83
2019-04-06T20:04:12.168Z,27.37
2019-04-06T20:07:20.717Z,27.13
2019-04-06T20:10:29.559Z,28.23
2019-04-06T20:13:38.185Z,29.00
2019-04-06T20:16:46.712Z,27.73
2019-04-06T20:19:55.344Z,28.27
2019-04-06T20:23:14.120Z,27.40
2019-04-06T20:26:23.201Z,28.03
2019-04-06T20:29:31.793Z,29.13
2019-04-06T20:32:40.918Z,29.83
2019-04-06T20:35:59.891Z,29.60
2019-04-06T20:39:10.353Z,30.10
2019-04-06T20:42:19.969Z,30.20
2019-04-06T20:45:28.591Z,30.90
2019-04-06T20:48:37.213Z,30.13
2019-04-06T20:51:58.658Z,29.27
2019-04-06T20:55:07.213Z,30.13
2019-04-06T20:58:15.775Z,29.27
2019-04-06T21:01:34.622Z,29.77
2019-04-06T21:04:43.164Z,30.33
2019-04-06T21:07:51.677Z,32.03
2019-04-06T21:11:00.327Z,30.37
2019-04-06T21:14:09.010Z,31.47
2019-04-06T21:17:17.527Z,30.80
2019-04-06T21:20:36.862Z,31.17
2019-04-06T21:23:56.086Z,31.63
2019-04-06T21:27:15.239Z,29.97
2019-04-06T21:30:24.738Z,31.70
2019-04-06T21:33:35.118Z,32.00
2019-04-06T21:36:43.672Z,31.97
2019-04-06T21:40:02.519Z,32.53
2019-04-06T21:43:11.099Z,32.17
2019-04-06T21:46:19.752Z,32.33
2019-04-06T21:49:28.868Z,31.00
2019-04-06T21:52:38.675Z,31.60
2019-04-06T21:55:47.470Z,32.90
2019-04-06T21:58:56.198Z,32.00
2019-04-06T22:02:07.046Z,31.90
2019-04-06T22:05:15.929Z,31.20
2019-04-06T22:08:24.964Z,33.23
2019-04-06T22:11:34.147Z,31.33
2019-04-06T22:14:53.117Z,33.33
2019-04-06T22:18:03.471Z,31.20
2019-04-06T22:21:12.524Z,31.47
2019-04-06T22:24:31.748Z,32.27
2019-04-06T22:27:40.323Z,31.73
2019-04-06T22:30:48.936Z,32.27
2019-04-06T22:33:57.597Z,32.13
2019-04-06T22:37:06.252Z,31.70
2019-04-06T22:40:15.550Z,31.00
2019-04-06T22:43:24.186Z,31.97
2019-04-06T22:46:32.951Z,30.83
2019-04-06T22:49:41.605Z,30.87
2019-04-06T22:52:50.439Z,31.20
2019-04-06T22:55:59.197Z,32.87
2019-04-06T22:59:07.746Z,31.40
2019-04-06T23:02:16.728Z,32.40
2019-04-06T23:05:31.061Z,31.67
2019-04-06T23:08:40.684Z,32.13
2019-04-06T23:11:49.312Z,32.93
2019-04-06T23:14:57.963Z,32.23
2019-04-06T23:18:07.065Z,31.93
2019-04-06T23:21:15.820Z,31.93
2019-04-06T23:24:25.246Z,32.40
2019-04-06T23:27:33.867Z,34.13
2019-04-06T23:30:42.575Z,32.60
2019-04-06T23:34:02.311Z,33.47
2019-04-06T23:37:11.057Z,32.83
2019-04-06T23:40:19.368Z,33.30
2019-04-06T23:43:28.020Z,32.70
2019-04-06T23:46:36.698Z,33.00
2019-04-06T23:49:45.397Z,34.13
2019-04-06T23:52:54.039Z,32.83
2019-04-06T23:56:12.854Z,33.00
2019-04-06T23:59:22.151Z,34.40
